createdAt,value
2018-06-12T00:02:27.269Z,59.71
2018-06-12T00:05:32.376Z,60.37
2018-06-12T00:08:37.448Z,59.46
2018-06-12T00:11:43.224Z,60.02
2018-06-12T00:14:48.472Z,59.68
2018-06-12T00:17:54.643Z,59.75
2018-06-12T00:20:59.776Z,60.23
2018-06-12T00:24:05.806Z,59.96
2018-06-12T00:27:11.431Z,60.18
2018-06-12T00:30:17.477Z,59.76
2018-06-12T00:33:23.306Z,59.84
2018-06-12T00:36:28.426Z,60.48
2018-06-12T00:39:33.964Z,60.00
2018-06-12T00:42:41.007Z,60.16
2018-06-12T00:45:47.157Z,60.26
2018-06-12T00:48:53.308Z,60.19
2018-06-12T00:51:58.404Z,59.96
2018-06-12T00:55:04.459Z,60.34
2018-06-12T00:58:10.196Z,60.95
2018-06-12T01:01:15.290Z,60.31
2018-06-12T01:04:21.440Z,60.24
2018-06-12T01:07:27.077Z,60.40
2018-06-12T01:10:32.959Z,61.18
2018-06-12T01:13:37.796Z,61.41
2018-06-12T01:16:43.396Z,60.95
2018-06-12T01:19:48.202Z,60.80
2018-06-12T01:22:54.520Z,61.90
2018-06-12T01:26:00.560Z,61.42
2018-06-12T01:29:07.600Z,61.51
2018-06-12T01:32:13.245Z,61.23
2018-06-12T01:35:19.109Z,61.19
2018-06-12T01:38:25.477Z,60.93
2018-06-12T01:41:31.849Z,60.81
2018-06-12T01:44:37.184Z,60.62
2018-06-12T01:47:42.296Z,61.56
2018-06-12T01:50:47.382Z,61.41
2018-06-12T01:53:53.193Z,61.60
2018-06-12T01:56:58.300Z,61.53
2018-06-12T02:00:04.561Z,61.59
2018-06-12T02:03:09.716Z,61.43
2018-06-12T02:06:15.477Z,61.89
2018-06-12T02:09:21.626Z,61.27
2018-06-12T02:12:26.883Z,61.52
2018-06-12T02:15:32.150Z,61.97
2018-06-12T02:18:37.241Z,61.70
2018-06-12T02:21:42.333Z,61.78
2018-06-12T02:24:47.451Z,61.33
2018-06-12T02:27:52.961Z,62.15
2018-06-12T02:30:58.283Z,61.71
2018-06-12T02:34:04.322Z,62.13
2018-06-12T02:37:09.997Z,61.40
2018-06-12T02:40:14.904Z,61.36
2018-06-12T02:43:21.577Z,61.72
2018-06-12T02:46:27.261Z,61.47
2018-06-12T02:49:32.095Z,62.18
2018-06-12T02:52:37.146Z,61.39
2018-06-12T02:55:42.769Z,61.21
2018-06-12T02:58:47.901Z,61.60
2018-06-12T03:01:53.094Z,61.99
2018-06-12T03:04:57.953Z,62.72
2018-06-12T03:08:03.050Z,62.27
2018-06-12T03:11:09.490Z,62.47
2018-06-12T03:14:15.552Z,62.33
2018-06-12T03:17:21.760Z,61.59
2018-06-12T03:20:38.830Z,61.60
2018-06-12T03:23:45.422Z,61.91
2018-06-12T03:26:50.953Z,62.38
2018-06-12T03:29:56.961Z,61.70
2018-06-12T03:33:02.027Z,62.29
2018-06-12T03:36:08.173Z,62.71
2018-06-12T03:39:13.347Z,61.52
2018-06-12T03:42:18.773Z,62.69
2018-06-12T03:45:23.590Z,62.77
2018-06-12T03:48:29.862Z,62.24
2018-06-12T03:51:34.995Z,62.24
2018-06-12T03:54:41.150Z,61.98
2018-06-12T03:57:46.281Z,61.92
2018-06-12T04:00:52.901Z,62.00
2018-06-12T04:03:58.177Z,62.54
2018-06-12T04:07:03.289Z,62.49
2018-06-12T04:10:09.368Z,62.15
2018-06-12T04:13:15.426Z,62.12
2018-06-12T04:16:20.556Z,62.16
2018-06-12T04:19:25.624Z,62.19
2018-06-12T04:22:30.733Z,62.47
2018-06-12T04:25:35.846Z,62.09
2018-06-12T04:28:41.977Z,62.68
2018-06-12T04:31:48.041Z,62.32
2018-06-12T04:34:53.180Z,62.45
2018-06-12T04:37:58.278Z,62.43
2018-06-12T04:41:03.882Z,62.50
2018-06-12T04:44:09.203Z,62.61
2018-06-12T04:47:14.629Z,62.36
2018-06-12T04:50:20.483Z,62.43
2018-06-12T04:53:26.300Z,62.50
2018-06-12T04:56:31.786Z,62.51
2018-06-12T04:59:36.866Z,62.34
2018-06-12T05:02:41.998Z,62.07
2018-06-12T05:05:48.048Z,62.70
2018-06-12T05:08:53.873Z,62.16
2018-06-12T05:12:00.187Z,62.94
2018-06-12T05:15:05.044Z,63.10
2018-06-12T05:18:10.956Z,62.87
2018-06-12T05:21:16.713Z,62.58
2018-06-12T05:24:22.567Z,62.87
2018-06-12T05:27:28.454Z,63.13
2018-06-12T05:30:34.491Z,63.10
2018-06-12T05:33:39.652Z,62.79
2018-06-12T05:36:45.078Z,62.68
2018-06-12T05:39:51.112Z,62.82
2018-06-12T05:42:56.233Z,62.42
2018-06-12T05:46:01.964Z,62.61
2018-06-12T05:49:08.989Z,62.82
2018-06-12T05:52:15.629Z,63.59
2018-06-12T05:55:21.055Z,62.82
2018-06-12T05:58:28.085Z,63.45
2018-06-12T06:01:34.101Z,62.92
2018-06-12T06:04:39.867Z,62.94
2018-06-12T06:07:44.992Z,62.40
2018-06-12T06:10:50.333Z,62.93
2018-06-12T06:13:56.433Z,63.57
2018-06-12T06:17:02.543Z,62.55
2018-06-12T06:20:08.757Z,63.15
2018-06-12T06:23:14.810Z,62.68
2018-06-12T06:26:19.905Z,62.57
2018-06-12T06:29:25.885Z,63.38
2018-06-12T06:32:32.911Z,62.83
2018-06-12T06:35:38.878Z,63.26
2018-06-12T06:38:43.997Z,63.01
2018-06-12T06:41:49.100Z,62.92
2018-06-12T06:44:54.241Z,63.85
2018-06-12T06:47:59.266Z,63.68
2018-06-12T06:51:05.811Z,63.54
2018-06-12T06:54:12.628Z,63.63
2018-06-12T06:57:18.657Z,62.69
2018-06-12T07:00:23.832Z,63.04
2018-06-12T07:03:29.707Z,62.73
2018-06-12T07:06:35.830Z,63.91
2018-06-12T07:09:41.678Z,63.91
2018-06-12T07:12:47.357Z,63.12
2018-06-12T07:15:52.490Z,63.68
2018-06-12T07:18:59.329Z,63.10
2018-06-12T07:22:04.476Z,63.06
2018-06-12T07:25:11.326Z,63.31
2018-06-12T07:28:17.162Z,63.56
2018-06-12T07:31:23.533Z,63.05
2018-06-12T07:34:28.657Z,62.81
2018-06-12T07:37:33.904Z,62.87
2018-06-12T07:40:40.090Z,62.75
2018-06-12T07:43:45.200Z,61.78
2018-06-12T07:46:51.208Z,61.91
2018-06-12T07:49:56.533Z,62.63
2018-06-12T07:53:02.341Z,61.66
2018-06-12T07:56:08.353Z,62.58
2018-06-12T07:59:13.452Z,62.68
2018-06-12T08:02:18.570Z,62.66
2018-06-12T08:05:24.709Z,62.27
2018-06-12T08:08:29.824Z,63.04
2018-06-12T08:11:34.930Z,62.83
2018-06-12T08:14:40.025Z,62.62
2018-06-12T08:17:46.140Z,62.47
2018-06-12T08:20:51.824Z,62.52
2018-06-12T08:23:58.912Z,62.88
2018-06-12T08:27:05.181Z,61.56
2018-06-12T08:30:11.396Z,61.82
2018-06-12T08:33:17.669Z,61.98
2018-06-12T08:36:22.817Z,61.87
2018-06-12T08:39:28.529Z,62.70
2018-06-12T08:42:33.600Z,62.76
2018-06-12T08:45:39.433Z,62.89
2018-06-12T08:48:45.456Z,62.26
2018-06-12T08:51:50.547Z,62.97
2018-06-12T08:54:56.610Z,63.11
2018-06-12T08:58:02.321Z,63.00
2018-06-12T09:01:08.441Z,62.99
2018-06-12T09:04:15.448Z,62.67
2018-06-12T09:07:20.558Z,61.94
2018-06-12T09:10:26.113Z,62.36
2018-06-12T09:13:32.297Z,62.06
2018-06-12T09:16:38.894Z,61.47
2018-06-12T09:19:44.145Z,61.92
2018-06-12T09:22:49.691Z,63.09
2018-06-12T09:25:55.924Z,62.76
2018-06-12T09:29:00.997Z,62.28
2018-06-12T09:32:06.129Z,62.51
2018-06-12T09:35:11.204Z,62.95
2018-06-12T09:38:16.299Z,62.84
2018-06-12T09:41:21.409Z,62.70
2018-06-12T09:44:27.502Z,62.66
2018-06-12T09:47:33.044Z,62.11
2018-06-12T09:50:38.150Z,62.57
2018-06-12T09:53:44.234Z,61.43
2018-06-12T09:56:49.345Z,62.57
2018-06-12T09:59:55.432Z,62.67
2018-06-12T10:03:01.450Z,61.96
2018-06-12T10:06:07.469Z,62.40
2018-06-12T10:09:12.581Z,62.49
2018-06-12T10:12:18.684Z,61.92
2018-06-12T10:15:24.736Z,61.98
2018-06-12T10:18:31.123Z,62.61
2018-06-12T10:21:37.075Z,61.88
2018-06-12T10:24:42.212Z,62.38
2018-06-12T10:27:48.237Z,62.09
2018-06-12T10:30:53.509Z,62.30
2018-06-12T10:33:58.613Z,62.14
2018-06-12T10:37:05.083Z,61.18
2018-06-12T10:40:10.925Z,61.21
2018-06-12T10:43:16.025Z,61.62
2018-06-12T10:46:21.637Z,61.63
2018-06-12T10:49:26.717Z,61.05
2018-06-12T10:52:31.981Z,61.36
2018-06-12T10:55:38.077Z,61.45
2018-06-12T10:58:43.705Z,61.26
2018-06-12T11:01:49.320Z,61.40
2018-06-12T11:04:54.447Z,60.48
2018-06-12T11:07:59.898Z,61.51
2018-06-12T11:11:05.008Z,61.79
2018-06-12T11:14:11.021Z,61.82
2018-06-12T11:17:17.138Z,62.07
2018-06-12T11:20:23.309Z,62.05
2018-06-12T11:23:28.823Z,62.11
2018-06-12T11:26:33.917Z,61.87
2018-06-12T11:29:39.008Z,61.56
2018-06-12T11:32:44.105Z,61.26
2018-06-12T11:35:50.581Z,61.38
2018-06-12T11:38:56.605Z,60.50
2018-06-12T11:42:01.701Z,61.04
2018-06-12T11:45:06.809Z,60.93
2018-06-12T11:48:11.936Z,60.71
2018-06-12T11:51:17.049Z,60.85
2018-06-12T11:54:22.113Z,61.23
2018-06-12T11:57:27.884Z,60.57
2018-06-12T12:00:33.928Z,60.68
2018-06-12T12:03:38.782Z,60.61
2018-06-12T12:06:43.878Z,61.06
2018-06-12T12:09:49.965Z,60.44
2018-06-12T12:12:56.001Z,61.11
2018-06-12T12:16:01.947Z,60.45
2018-06-12T12:19:07.292Z,60.68
2018-06-12T12:22:13.097Z,60.33
2018-06-12T12:25:18.161Z,59.99
2018-06-12T12:28:22.968Z,60.83
2018-06-12T12:31:28.074Z,60.32
2018-06-12T12:34:33.174Z,60.91
2018-06-12T12:37:38.277Z,60.41
2018-06-12T12:40:43.393Z,61.25
2018-06-12T12:43:48.470Z,60.65
2018-06-12T12:46:53.621Z,61.52
2018-06-12T12:49:58.717Z,61.27
2018-06-12T12:53:04.827Z,61.46
2018-06-12T12:56:10.258Z,61.03
2018-06-12T12:59:16.487Z,60.83
2018-06-12T13:02:22.269Z,60.83
2018-06-12T13:05:28.359Z,61.23
2018-06-12T13:08:33.921Z,60.08
2018-06-12T13:11:38.744Z,60.02
2018-06-12T13:14:43.817Z,60.64
2018-06-12T13:17:49.638Z,59.66
2018-06-12T13:20:55.248Z,60.52
2018-06-12T13:24:02.116Z,59.75
2018-06-12T13:27:07.244Z,59.96
2018-06-12T13:30:13.070Z,60.88
2018-06-12T13:33:18.165Z,59.83
2018-06-12T13:36:23.589Z,60.49
2018-06-12T13:39:29.521Z,59.51
2018-06-12T13:42:35.537Z,60.54
2018-06-12T13:45:42.033Z,59.79
2018-06-12T13:48:48.992Z,60.63
2018-06-12T13:51:54.917Z,60.65
2018-06-12T13:55:00.933Z,60.07
2018-06-12T13:58:06.078Z,60.92
2018-06-12T14:01:11.165Z,60.52
2018-06-12T14:04:17.277Z,58.21
2018-06-12T14:07:22.446Z,58.52
2018-06-12T14:10:28.556Z,59.09
2018-06-12T14:13:33.745Z,59.56
2018-06-12T14:16:39.512Z,59.11
2018-06-12T14:19:45.624Z,59.73
2018-06-12T14:22:52.201Z,59.28
2018-06-12T14:25:57.312Z,60.26
2018-06-12T14:29:03.253Z,59.17
2018-06-12T14:32:09.289Z,60.07
2018-06-12T14:35:14.416Z,59.53
2018-06-12T14:38:20.058Z,60.14
2018-06-12T14:41:27.048Z,58.69
2018-06-12T14:44:33.082Z,60.09
2018-06-12T14:47:39.158Z,60.71
2018-06-12T14:50:44.245Z,60.94
2018-06-12T14:53:49.835Z,60.33
2018-06-12T14:56:54.964Z,60.86
2018-06-12T15:00:01.090Z,60.84
2018-06-12T15:03:06.421Z,61.00
2018-06-12T15:06:11.969Z,60.90
2018-06-12T15:09:17.085Z,60.54
2018-06-12T15:12:24.418Z,61.00
2018-06-12T15:15:30.362Z,61.03
2018-06-12T15:18:35.785Z,60.72
2018-06-12T15:21:41.890Z,61.01
2018-06-12T15:24:49.065Z,60.83
2018-06-12T15:27:55.082Z,60.07
2018-06-12T15:31:01.098Z,60.57
2018-06-12T15:34:07.144Z,60.43
2018-06-12T15:37:12.293Z,60.43
2018-06-12T15:40:18.229Z,60.50
2018-06-12T15:43:23.325Z,59.86
2018-06-12T15:46:28.493Z,60.50
2018-06-12T15:49:34.839Z,61.21
2018-06-12T15:52:40.778Z,61.46
2018-06-12T15:55:46.649Z,61.02
2018-06-12T15:58:52.519Z,60.88
2018-06-12T16:01:57.720Z,60.73
2018-06-12T16:05:02.841Z,61.55
2018-06-12T16:08:08.982Z,60.96
2018-06-12T16:11:14.680Z,61.57
2018-06-12T16:14:20.277Z,61.97
2018-06-12T16:17:25.382Z,61.88
2018-06-12T16:20:30.523Z,62.13
2018-06-12T16:23:35.625Z,61.53
2018-06-12T16:26:41.164Z,61.89
2018-06-12T16:29:46.460Z,61.95
2018-06-12T16:32:51.603Z,61.37
2018-06-12T16:35:56.797Z,61.63
2018-06-12T16:39:02.761Z,61.85
2018-06-12T16:42:07.965Z,61.83
2018-06-12T16:45:13.156Z,61.94
2018-06-12T16:48:18.323Z,61.29
2018-06-12T16:51:23.489Z,62.03
2018-06-12T16:54:29.377Z,62.18
2018-06-12T16:57:34.497Z,60.97
2018-06-12T17:00:39.745Z,61.98
2018-06-12T17:03:46.774Z,61.20
2018-06-12T17:06:52.288Z,62.15
2018-06-12T17:09:59.285Z,61.56
2018-06-12T17:13:04.936Z,62.31
2018-06-12T17:16:10.496Z,61.46
2018-06-12T17:19:16.346Z,62.62
2018-06-12T17:22:22.524Z,61.79
2018-06-12T17:25:27.699Z,61.66
2018-06-12T17:28:34.527Z,61.98
2018-06-12T17:31:39.613Z,62.41
2018-06-12T17:34:44.797Z,61.79
2018-06-12T17:37:50.959Z,62.66
2018-06-12T17:40:57.148Z,62.75
2018-06-12T17:44:02.438Z,62.99
2018-06-12T17:47:08.510Z,62.93
2018-06-12T17:50:14.611Z,62.56
2018-06-12T17:53:19.924Z,62.81
2018-06-12T17:56:25.044Z,62.15
2018-06-12T17:59:31.315Z,63.03
2018-06-12T18:02:36.581Z,62.09
2018-06-12T18:05:41.725Z,63.12
2018-06-12T18:08:47.405Z,62.92
2018-06-12T18:11:52.681Z,62.88
2018-06-12T18:14:57.822Z,62.75
2018-06-12T18:18:03.051Z,62.62
2018-06-12T18:21:08.579Z,62.82
2018-06-12T18:24:14.658Z,62.92
2018-06-12T18:27:21.266Z,63.53
2018-06-12T18:30:27.263Z,63.58
2018-06-12T18:33:32.642Z,63.13
2018-06-12T18:36:37.785Z,63.51
2018-06-12T18:39:43.357Z,62.95
2018-06-12T18:42:48.533Z,63.01
2018-06-12T18:45:54.706Z,63.09
2018-06-12T18:49:00.661Z,63.15
2018-06-12T18:52:07.224Z,63.45
2018-06-12T18:55:13.372Z,63.17
2018-06-12T18:58:19.166Z,63.73
2018-06-12T19:01:25.480Z,62.22
2018-06-12T19:04:32.334Z,63.66
2018-06-12T19:07:37.494Z,63.38
2018-06-12T19:10:43.211Z,63.47
2018-06-12T19:13:49.251Z,62.88
2018-06-12T19:16:55.261Z,63.18
2018-06-12T19:20:00.416Z,62.43
2018-06-12T19:23:05.628Z,62.43
2018-06-12T19:26:12.401Z,63.27
2018-06-12T19:29:18.116Z,63.36
2018-06-12T19:32:23.273Z,62.76
2018-06-12T19:35:28.394Z,63.63
2018-06-12T19:38:34.643Z,63.13
2018-06-12T19:41:41.047Z,62.57
2018-06-12T19:44:47.897Z,62.92
2018-06-12T19:47:53.746Z,63.39
2018-06-12T19:51:00.216Z,63.17
2018-06-12T19:54:05.708Z,62.39
2018-06-12T19:57:11.489Z,62.17
2018-06-12T20:00:17.573Z,63.09
2018-06-12T20:03:30.093Z,63.12
2018-06-12T20:06:35.682Z,62.25
2018-06-12T20:09:40.801Z,63.11
2018-06-12T20:12:47.080Z,62.14
2018-06-12T20:15:53.732Z,62.70
2018-06-12T20:19:00.659Z,61.98
2018-06-12T20:22:06.919Z,62.22
2018-06-12T20:25:14.473Z,62.64
2018-06-12T20:28:20.514Z,62.59
2018-06-12T20:31:26.341Z,62.46
2018-06-12T20:34:32.444Z,62.50
2018-06-12T20:37:38.590Z,63.09
2018-06-12T20:40:44.653Z,62.41
2018-06-12T20:43:50.606Z,62.05
2018-06-12T20:46:56.431Z,62.03
2018-06-12T20:50:01.778Z,62.95
2018-06-12T20:53:07.910Z,62.43
2018-06-12T20:56:14.973Z,62.95
2018-06-12T20:59:20.236Z,62.42
2018-06-12T21:02:26.774Z,62.74
2018-06-12T21:05:32.802Z,62.56
2018-06-12T21:08:39.930Z,62.84
2018-06-12T21:11:45.586Z,62.52
2018-06-12T21:14:50.677Z,62.57
2018-06-12T21:17:55.790Z,63.66
2018-06-12T21:21:01.885Z,63.34
2018-06-12T21:24:07.401Z,62.96
2018-06-12T21:27:12.854Z,63.80
2018-06-12T21:30:18.757Z,64.25
2018-06-12T21:33:23.917Z,63.56
2018-06-12T21:36:29.330Z,64.50
2018-06-12T21:39:34.957Z,63.72
2018-06-12T21:42:41.073Z,64.47
2018-06-12T21:45:46.152Z,64.64
2018-06-12T21:48:51.761Z,64.33
2018-06-12T21:51:57.695Z,64.49
2018-06-12T21:55:04.721Z,65.43
2018-06-12T21:58:10.680Z,64.54
2018-06-12T22:01:15.821Z,64.64
2018-06-12T22:04:20.620Z,64.84
2018-06-12T22:07:25.706Z,64.89
2018-06-12T22:10:30.801Z,65.37
2018-06-12T22:13:36.430Z,65.03
2018-06-12T22:16:42.525Z,64.99
2018-06-12T22:19:48.314Z,64.92
2018-06-12T22:22:54.661Z,65.96
2018-06-12T22:26:00.569Z,64.80
2018-06-12T22:29:06.053Z,65.10
2018-06-12T22:32:11.192Z,65.53
2018-06-12T22:35:16.444Z,65.99
2018-06-12T22:38:22.653Z,65.22
2018-06-12T22:41:27.800Z,65.74
2018-06-12T22:44:33.211Z,65.62
2018-06-12T22:47:38.361Z,66.15
2018-06-12T22:50:44.257Z,66.19
2018-06-12T22:53:49.984Z,66.83
2018-06-12T22:56:55.411Z,66.99
2018-06-12T23:00:01.409Z,67.04
2018-06-12T23:03:06.471Z,67.70
2018-06-12T23:06:12.430Z,68.15
2018-06-12T23:09:18.422Z,69.01
2018-06-12T23:12:23.533Z,67.96
2018-06-12T23:15:29.209Z,68.44
2018-06-12T23:18:35.083Z,67.67
2018-06-12T23:21:51.852Z,67.23
2018-06-12T23:24:58.370Z,68.52
2018-06-12T23:28:04.123Z,68.44
2018-06-12T23:31:09.177Z,68.13
2018-06-12T23:34:15.648Z,68.80
2018-06-12T23:37:22.294Z,69.29
2018-06-12T23:40:28.242Z,69.11
2018-06-12T23:43:33.331Z,69.82
2018-06-12T23:46:38.773Z,69.99
2018-06-12T23:49:44.590Z,69.38
2018-06-12T23:52:49.672Z,70.56
2018-06-12T23:55:54.468Z,69.80
2018-06-12T23:59:01.187Z,69.13
